createdAt,value
2023-02-26T00:02:16.671Z,101102.94
2023-02-26T00:05:21.233Z,101110.09
2023-02-26T00:08:24.206Z,101111.88
2023-02-26T00:11:27.708Z,101112.81
2023-02-26T00:14:31.127Z,101118.09
2023-02-26T00:17:42.914Z,101123.47
2023-02-26T00:20:47.983Z,101126.09
2023-02-26T00:23:51.347Z,101137.59
2023-02-26T00:26:55.408Z,101142.91
2023-02-26T00:29:58.916Z,101148.25
2023-02-26T00:33:02.389Z,101155.41
2023-02-26T00:36:21.786Z,101150.06
2023-02-26T00:39:38.655Z,101156.41
2023-02-26T00:42:42.292Z,101156.41
2023-02-26T00:45:52.791Z,101157.31
2023-02-26T00:49:03.936Z,101170.63
2023-02-26T00:52:20.117Z,101164.47
2023-02-26T00:55:23.341Z,101168.94
2023-02-26T00:58:26.295Z,101172.47
2023-02-26T01:01:29.287Z,101176.91
2023-02-26T01:04:32.912Z,101182.25
2023-02-26T01:07:43.233Z,101183.16
2023-02-26T01:10:46.697Z,101181.38
2023-02-26T01:13:50.381Z,101192.03
2023-02-26T01:16:58.748Z,101197.44
2023-02-26T01:20:05.526Z,101197.44
2023-02-26T01:23:13.434Z,101198.34
2023-02-26T01:26:22.509Z,101196.66
2023-02-26T01:29:26.065Z,101201.09
2023-02-26T01:32:36.874Z,101203.75
2023-02-26T01:35:44.933Z,101209.16
2023-02-26T01:38:59.410Z,101210.88
2023-02-26T01:42:10.577Z,101210.00
2023-02-26T01:45:17.591Z,101209.16
2023-02-26T01:48:36.014Z,101216.22
2023-02-26T01:51:47.765Z,101219.84
2023-02-26T01:54:53.455Z,101226.88
2023-02-26T01:58:00.105Z,101229.63
2023-02-26T02:01:03.669Z,101233.19
2023-02-26T02:04:11.223Z,101238.53
2023-02-26T02:07:14.939Z,101237.69
2023-02-26T02:10:19.859Z,101240.34
2023-02-26T02:13:36.569Z,101248.34
2023-02-26T02:16:49.089Z,101246.59
2023-02-26T02:20:12.364Z,101255.47
2023-02-26T02:23:21.355Z,101259.00
2023-02-26T02:27:00.138Z,101264.34
2023-02-26T02:30:34.242Z,101268.78
2023-02-26T02:33:46.195Z,101278.56
2023-02-26T02:36:54.995Z,101278.56
2023-02-26T02:40:02.595Z,101281.22
2023-02-26T02:43:10.482Z,101289.22
2023-02-26T02:46:19.524Z,101294.56
2023-02-26T02:49:30.330Z,101291.03
2023-02-26T02:52:38.930Z,101292.84
2023-02-26T02:55:47.420Z,101283.09
2023-02-26T02:58:55.650Z,101296.41
2023-02-26T03:02:07.646Z,101301.75
2023-02-26T03:05:12.143Z,101303.50
2023-02-26T03:08:18.720Z,101303.50
2023-02-26T03:11:22.858Z,101308.81
2023-02-26T03:14:26.526Z,101318.63
2023-02-26T03:17:34.828Z,101327.47
2023-02-26T03:20:46.071Z,101330.16
2023-02-26T03:23:56.627Z,101329.28
2023-02-26T03:27:01.840Z,101335.47
2023-02-26T03:30:09.141Z,101351.47
2023-02-26T03:33:24.256Z,101343.50
2023-02-26T03:36:33.774Z,101358.66
2023-02-26T03:39:59.280Z,101354.16
2023-02-26T03:43:07.447Z,101369.31
2023-02-26T03:46:16.454Z,101372.81
2023-02-26T03:49:27.108Z,101371.97
2023-02-26T03:52:35.527Z,101375.47
2023-02-26T03:56:09.453Z,101391.44
2023-02-26T03:59:38.801Z,101383.44
2023-02-26T04:03:17.729Z,101397.56
2023-02-26T04:06:21.365Z,101398.47
2023-02-26T04:09:26.569Z,101407.34
2023-02-26T04:12:30.358Z,101415.34
2023-02-26T04:15:34.125Z,101423.34
2023-02-26T04:18:37.127Z,101429.53
2023-02-26T04:21:41.620Z,101431.25
2023-02-26T04:24:46.032Z,101436.59
2023-02-26T04:27:51.315Z,101432.13
2023-02-26T04:30:55.097Z,101441.00
2023-02-26T04:33:58.400Z,101453.38
2023-02-26T04:37:01.429Z,101451.66
2023-02-26T04:40:06.955Z,101462.25
2023-02-26T04:43:10.388Z,101468.47
2023-02-26T04:46:21.263Z,101459.50
2023-02-26T04:49:24.439Z,101471.03
2023-02-26T04:52:27.746Z,101472.84
2023-02-26T04:55:32.270Z,101475.50
2023-02-26T04:58:35.401Z,101475.50
2023-02-26T05:01:44.054Z,101478.16
2023-02-26T05:04:47.152Z,101486.16
2023-02-26T05:07:50.154Z,101484.44
2023-02-26T05:10:54.956Z,101494.16
2023-02-26T05:13:58.065Z,101489.78
2023-02-26T05:17:01.065Z,101499.56
2023-02-26T05:20:04.856Z,101503.13
2023-02-26T05:23:08.248Z,101501.41
2023-02-26T05:26:12.679Z,101509.47
2023-02-26T05:29:15.636Z,101513.06
2023-02-26T05:32:20.616Z,101510.47
2023-02-26T05:35:23.777Z,101517.56
2023-02-26T05:38:26.849Z,101529.19
2023-02-26T05:41:31.486Z,101527.44
2023-02-26T05:44:35.390Z,101534.50
2023-02-26T05:47:38.483Z,101525.69
2023-02-26T05:50:41.408Z,101539.94
2023-02-26T05:53:44.481Z,101552.31
2023-02-26T05:56:49.025Z,101554.97
2023-02-26T05:59:51.997Z,101564.78
2023-02-26T06:02:55.163Z,101576.31
2023-02-26T06:05:58.117Z,101580.72
2023-02-26T06:09:01.353Z,101589.63
2023-02-26T06:12:06.712Z,101583.38
2023-02-26T06:15:11.366Z,101591.38
2023-02-26T06:18:14.442Z,101586.97
2023-02-26T06:21:17.729Z,101593.13
2023-02-26T06:24:20.882Z,101602.03
2023-02-26T06:27:25.344Z,101607.38
2023-02-26T06:30:28.455Z,101618.91
2023-02-26T06:33:31.481Z,101626.91
2023-02-26T06:36:34.408Z,101626.91
2023-02-26T06:39:37.480Z,101625.94
2023-02-26T06:42:42.004Z,101633.09
2023-02-26T06:45:45.127Z,101635.69
2023-02-26T06:48:48.157Z,101642.81
2023-02-26T06:51:51.214Z,101648.16
2023-02-26T06:54:54.232Z,101660.56
2023-02-26T06:57:59.476Z,101664.13
2023-02-26T07:01:04.362Z,101669.47
2023-02-26T07:04:07.396Z,101674.78
2023-02-26T07:07:11.445Z,101678.41
2023-02-26T07:10:14.402Z,101682.78
2023-02-26T07:13:19.344Z,101685.44
2023-02-26T07:16:22.849Z,101697.00
2023-02-26T07:19:25.821Z,101690.78
2023-02-26T07:22:28.801Z,101701.44
2023-02-26T07:25:31.762Z,101706.78
2023-02-26T07:28:36.185Z,101717.44
2023-02-26T07:31:39.727Z,101720.16
2023-02-26T07:34:42.767Z,101721.03
2023-02-26T07:37:45.816Z,101736.19
2023-02-26T07:40:48.841Z,101738.00
2023-02-26T07:43:53.294Z,101744.16
2023-02-26T07:46:56.240Z,101743.31
2023-02-26T07:49:59.336Z,101764.66
2023-02-26T07:53:02.359Z,101769.91
2023-02-26T07:56:05.847Z,101769.97
2023-02-26T07:59:10.821Z,101771.69
2023-02-26T08:02:14.540Z,101779.66
2023-02-26T08:05:17.667Z,101777.91
2023-02-26T08:08:20.738Z,101793.91
2023-02-26T08:11:23.900Z,101788.56
2023-02-26T08:14:28.263Z,101788.56
2023-02-26T08:17:31.240Z,101786.81
2023-02-26T08:20:34.199Z,101797.47
2023-02-26T08:23:37.200Z,101802.78
2023-02-26T08:26:40.541Z,101804.50
2023-02-26T08:29:46.865Z,101801.28
2023-02-26T08:32:49.940Z,101806.53
2023-02-26T08:35:53.731Z,101817.84
2023-02-26T08:38:56.742Z,101814.06
2023-02-26T08:41:59.777Z,101816.53
2023-02-26T08:45:05.007Z,101823.22
2023-02-26T08:48:10.473Z,101827.06
2023-02-26T08:51:13.818Z,101821.16
2023-02-26T08:54:17.388Z,101834.91
2023-02-26T08:57:20.448Z,101836.22
2023-02-26T09:00:25.215Z,101839.41
2023-02-26T09:03:28.310Z,101838.16
2023-02-26T09:06:32.583Z,101853.00
2023-02-26T09:09:36.017Z,101853.75
2023-02-26T09:12:39.087Z,101865.16
2023-02-26T09:15:43.797Z,101875.59
2023-02-26T09:18:47.272Z,101878.13
2023-02-26T09:21:50.729Z,101887.81
2023-02-26T09:24:53.838Z,101884.19
2023-02-26T09:27:58.652Z,101894.88
2023-02-26T09:31:03.314Z,101899.28
2023-02-26T09:34:06.786Z,101903.81
2023-02-26T09:37:10.956Z,101905.63
2023-02-26T09:40:25.719Z,101919.16
2023-02-26T09:43:58.592Z,101924.56
2023-02-26T09:47:07.681Z,101918.56
2023-02-26T09:50:18.561Z,101926.75
2023-02-26T09:53:25.358Z,101939.41
2023-02-26T09:56:30.940Z,101932.66
2023-02-26T09:59:35.180Z,101945.38
2023-02-26T10:02:48.716Z,101942.16
2023-02-26T10:06:11.298Z,101948.59
2023-02-26T10:09:26.175Z,101949.56
2023-02-26T10:12:32.346Z,101950.38
2023-02-26T10:15:40.740Z,101956.50
2023-02-26T10:18:49.320Z,101964.38
2023-02-26T10:21:55.853Z,101965.06
2023-02-26T10:25:04.389Z,101968.41
2023-02-26T10:28:22.215Z,101967.31
2023-02-26T10:31:32.210Z,101969.69
2023-02-26T10:34:43.299Z,101983.63
2023-02-26T10:37:50.440Z,101973.56
2023-02-26T10:41:01.766Z,101985.72
2023-02-26T10:44:15.060Z,101975.72
2023-02-26T10:47:29.892Z,101986.22
2023-02-26T10:50:34.550Z,101999.50
2023-02-26T10:53:40.688Z,101998.63
2023-02-26T10:56:43.793Z,102000.47
2023-02-26T10:59:46.825Z,101999.66
2023-02-26T11:02:53.383Z,102009.50
2023-02-26T11:05:57.811Z,102012.31
2023-02-26T11:09:02.761Z,102006.22
2023-02-26T11:12:14.005Z,102004.59
2023-02-26T11:15:20.112Z,102009.16
2023-02-26T11:18:28.151Z,102011.97
2023-02-26T11:21:39.300Z,102012.03
2023-02-26T11:24:46.894Z,102016.47
2023-02-26T11:27:54.893Z,102025.41
2023-02-26T11:30:57.998Z,102021.94
2023-02-26T11:34:04.975Z,102022.00
2023-02-26T11:37:09.562Z,102021.19
2023-02-26T11:40:18.139Z,102035.47
2023-02-26T11:43:23.690Z,102034.66
2023-02-26T11:46:27.144Z,102040.06
2023-02-26T11:49:30.694Z,102036.56
2023-02-26T11:52:41.184Z,102024.16
2023-02-26T11:55:48.145Z,102048.19
2023-02-26T11:58:55.254Z,102046.47
2023-02-26T12:02:04.105Z,102051.81
2023-02-26T12:05:08.257Z,102049.16
2023-02-26T12:08:19.525Z,102045.63
2023-02-26T12:11:46.408Z,102047.41
2023-02-26T12:15:01.391Z,102052.75
2023-02-26T12:18:24.549Z,102058.97
2023-02-26T12:21:40.587Z,102058.09
2023-02-26T12:25:02.176Z,102060.81
2023-02-26T12:28:30.369Z,102056.31
2023-02-26T12:31:57.200Z,102061.66
2023-02-26T12:35:18.810Z,102061.66
2023-02-26T12:38:29.722Z,102061.66
2023-02-26T12:41:57.508Z,102063.41
2023-02-26T12:45:21.920Z,102058.09
2023-02-26T12:48:53.072Z,102068.75
2023-02-26T12:52:20.055Z,102066.06
2023-02-26T12:55:35.252Z,102076.75
2023-02-26T12:59:01.958Z,102081.13
2023-02-26T13:02:24.337Z,102081.13
2023-02-26T13:05:43.864Z,102076.75
2023-02-26T13:08:52.167Z,102074.97
2023-02-26T13:12:09.708Z,102070.59
2023-02-26T13:15:43.243Z,102073.25
2023-02-26T13:18:55.020Z,102084.81
2023-02-26T13:22:01.457Z,102088.41
2023-02-26T13:25:07.729Z,102107.97
2023-02-26T13:28:22.689Z,102103.53
2023-02-26T13:31:33.016Z,102108.88
2023-02-26T13:34:42.855Z,102107.97
2023-02-26T13:37:49.339Z,102107.97
2023-02-26T13:41:04.076Z,102113.31
2023-02-26T13:44:22.052Z,102107.97
2023-02-26T13:48:01.929Z,102102.69
2023-02-26T13:51:10.755Z,102110.69
2023-02-26T13:54:36.081Z,102100.03
2023-02-26T13:57:48.782Z,102094.72
2023-02-26T14:01:00.303Z,102104.50
2023-02-26T14:04:26.078Z,102109.81
2023-02-26T14:07:53.641Z,102109.81
2023-02-26T14:11:03.611Z,102114.28
2023-02-26T14:14:31.505Z,102114.25
2023-02-26T14:17:40.651Z,102118.63
2023-02-26T14:20:46.584Z,102120.41
2023-02-26T14:23:50.596Z,102114.19
2023-02-26T14:27:10.504Z,102127.53
2023-02-26T14:30:20.498Z,102125.75
2023-02-26T14:33:30.170Z,102132.78
2023-02-26T14:36:40.909Z,102128.41
2023-02-26T14:39:49.705Z,102126.63
2023-02-26T14:42:55.972Z,102141.72
2023-02-26T14:45:59.026Z,102139.94
2023-02-26T14:49:02.441Z,102141.72
2023-02-26T14:52:41.589Z,102147.06
2023-02-26T14:56:00.406Z,102155.97
2023-02-26T14:59:35.008Z,102158.59
2023-02-26T15:02:50.640Z,102152.41
2023-02-26T15:06:12.458Z,102161.28
2023-02-26T15:09:22.645Z,102155.09
2023-02-26T15:12:42.794Z,102161.28
2023-02-26T15:15:54.388Z,102163.13
2023-02-26T15:19:22.461Z,102171.19
2023-02-26T15:22:49.173Z,102174.75
2023-02-26T15:25:52.818Z,102173.91
2023-02-26T15:28:58.712Z,102176.56
2023-02-26T15:32:08.225Z,102171.25
2023-02-26T15:35:19.209Z,102183.72
2023-02-26T15:38:23.080Z,102182.84
2023-02-26T15:41:28.416Z,102191.72
2023-02-26T15:44:35.098Z,102191.72
2023-02-26T15:47:40.870Z,102193.47
2023-02-26T15:50:46.949Z,102205.00
2023-02-26T15:53:52.266Z,102196.13
2023-02-26T15:56:55.416Z,102195.25
2023-02-26T16:00:10.350Z,102204.13
2023-02-26T16:03:16.005Z,102207.66
2023-02-26T16:06:21.882Z,102206.78
2023-02-26T16:09:30.099Z,102208.53
2023-02-26T16:12:37.928Z,102205.88
2023-02-26T16:15:43.740Z,102206.72
2023-02-26T16:18:47.779Z,102212.94
2023-02-26T16:21:53.579Z,102210.22
2023-02-26T16:25:01.039Z,102212.88
2023-02-26T16:28:06.743Z,102227.94
2023-02-26T16:31:18.550Z,102221.69
2023-02-26T16:34:30.224Z,102221.69
2023-02-26T16:37:36.152Z,102220.81
2023-02-26T16:40:44.395Z,102228.88
2023-02-26T16:43:54.384Z,102241.25
2023-02-26T16:47:00.016Z,102240.41
2023-02-26T16:50:03.843Z,102246.59
2023-02-26T16:53:09.765Z,102246.63
2023-02-26T16:56:16.795Z,102248.44
2023-02-26T16:59:23.177Z,102262.69
2023-02-26T17:02:30.841Z,102266.19
2023-02-26T17:05:38.428Z,102268.00
2023-02-26T17:08:49.134Z,102279.56
2023-02-26T17:11:52.685Z,102282.25
2023-02-26T17:14:57.892Z,102290.25
2023-02-26T17:18:03.054Z,102285.84
2023-02-26T17:21:08.042Z,102289.41
2023-02-26T17:24:17.906Z,102293.00
2023-02-26T17:27:28.360Z,102288.53
2023-02-26T17:30:33.609Z,102289.41
2023-02-26T17:33:41.469Z,102295.66
2023-02-26T17:36:44.634Z,102297.44
2023-02-26T17:39:47.986Z,102303.66
2023-02-26T17:42:51.990Z,102309.00
2023-02-26T17:45:54.995Z,102308.13
2023-02-26T17:48:59.371Z,102311.63
2023-02-26T17:52:02.424Z,102314.28
2023-02-26T17:55:05.892Z,102310.72
2023-02-26T17:58:14.481Z,102310.72
2023-02-26T18:01:17.517Z,102309.84
2023-02-26T18:04:22.589Z,102316.94
2023-02-26T18:07:26.320Z,102319.59
2023-02-26T18:10:29.379Z,102317.84
2023-02-26T18:13:32.651Z,102316.94
2023-02-26T18:16:40.313Z,102330.31
2023-02-26T18:19:46.306Z,102331.16
2023-02-26T18:22:50.475Z,102328.50
2023-02-26T18:25:56.411Z,102335.59
2023-02-26T18:28:59.451Z,102332.94
2023-02-26T18:32:03.678Z,102343.59
2023-02-26T18:35:08.941Z,102334.66
2023-02-26T18:38:12.961Z,102346.22
2023-02-26T18:41:15.979Z,102348.00
2023-02-26T18:44:18.958Z,102349.81
2023-02-26T18:47:23.165Z,102352.47
2023-02-26T18:50:27.466Z,102355.16
2023-02-26T18:53:30.481Z,102358.72
2023-02-26T18:56:33.529Z,102362.31
2023-02-26T18:59:36.700Z,102362.31
2023-02-26T19:02:39.860Z,102367.63
2023-02-26T19:05:44.312Z,102366.75
2023-02-26T19:08:47.609Z,102376.53
2023-02-26T19:11:50.622Z,102377.47
2023-02-26T19:14:53.701Z,102374.91
2023-02-26T19:17:56.839Z,102371.34
2023-02-26T19:21:02.593Z,102381.19
2023-02-26T19:24:06.598Z,102389.19
2023-02-26T19:27:10.301Z,102387.41
2023-02-26T19:30:13.886Z,102392.72
2023-02-26T19:33:20.393Z,102394.41
2023-02-26T19:36:25.176Z,102397.91
2023-02-26T19:39:28.523Z,102393.41
2023-02-26T19:42:31.487Z,102392.47
2023-02-26T19:45:34.478Z,102403.03
2023-02-26T19:48:37.731Z,102410.13
2023-02-26T19:51:43.228Z,102410.03
2023-02-26T19:54:46.272Z,102413.53
2023-02-26T19:57:49.388Z,102412.59
2023-02-26T20:00:52.616Z,102420.56
2023-02-26T20:03:56.096Z,102424.09
2023-02-26T20:07:00.496Z,102423.19
2023-02-26T20:10:03.568Z,102429.41
2023-02-26T20:13:06.633Z,102427.63
2023-02-26T20:16:11.285Z,102432.09
2023-02-26T20:19:14.624Z,102437.41
2023-02-26T20:22:21.229Z,102440.13
2023-02-26T20:25:24.650Z,102452.56
2023-02-26T20:28:28.264Z,102457.97
2023-02-26T20:31:31.697Z,102448.19
2023-02-26T20:34:34.689Z,102447.34
2023-02-26T20:37:39.931Z,102441.13
2023-02-26T20:40:42.979Z,102450.91
2023-02-26T20:43:45.984Z,102452.69
2023-02-26T20:46:49.070Z,102454.50
2023-02-26T20:49:52.090Z,102455.41
2023-02-26T20:52:56.476Z,102459.84
2023-02-26T20:56:00.111Z,102459.84
2023-02-26T20:59:03.228Z,102466.94
2023-02-26T21:02:06.160Z,102462.50
2023-02-26T21:05:10.508Z,102466.94
2023-02-26T21:08:15.269Z,102474.91
2023-02-26T21:11:18.237Z,102466.00
2023-02-26T21:14:21.335Z,102470.34
2023-02-26T21:17:25.094Z,102476.56
2023-02-26T21:20:28.123Z,102477.41
2023-02-26T21:23:32.508Z,102486.22
2023-02-26T21:26:35.592Z,102479.97
2023-02-26T21:29:38.657Z,102479.06
2023-02-26T21:32:42.737Z,102479.94
2023-02-26T21:35:45.770Z,102480.81
2023-02-26T21:38:50.113Z,102486.13
2023-02-26T21:41:53.077Z,102498.56
2023-02-26T21:44:56.041Z,102499.44
2023-02-26T21:47:59.059Z,102499.44
2023-02-26T21:51:02.285Z,102506.53
2023-02-26T21:54:06.914Z,102514.53
2023-02-26T21:57:10.071Z,102507.41
2023-02-26T22:00:14.385Z,102515.38
2023-02-26T22:03:17.521Z,102513.59
2023-02-26T22:06:20.508Z,102509.09
2023-02-26T22:09:24.874Z,102510.00
2023-02-26T22:12:27.822Z,102505.53
2023-02-26T22:15:30.945Z,102502.00
2023-02-26T22:18:33.979Z,102505.53
2023-02-26T22:21:37.406Z,102505.59
2023-02-26T22:24:42.065Z,102512.66
2023-02-26T22:27:45.116Z,102509.09
2023-02-26T22:30:48.201Z,102519.81
2023-02-26T22:33:51.221Z,102518.91
2023-02-26T22:36:54.377Z,102520.69
2023-02-26T22:39:58.729Z,102515.38
2023-02-26T22:43:01.772Z,102525.16
2023-02-26T22:46:05.078Z,102534.00
2023-02-26T22:49:08.082Z,102537.59
2023-02-26T22:52:11.761Z,102530.47
2023-02-26T22:55:16.545Z,102536.69
2023-02-26T22:58:19.586Z,102537.59
2023-02-26T23:01:22.606Z,102535.81
2023-02-26T23:04:25.644Z,102544.75
2023-02-26T23:07:28.747Z,102541.16
2023-02-26T23:10:34.124Z,102545.63
2023-02-26T23:13:38.100Z,102544.75
2023-02-26T23:16:41.573Z,102550.06
2023-02-26T23:19:44.820Z,102543.88
2023-02-26T23:22:47.906Z,102550.06
2023-02-26T23:25:52.729Z,102547.44
2023-02-26T23:28:56.046Z,102553.66
2023-02-26T23:31:59.081Z,102555.41
2023-02-26T23:35:02.199Z,102556.31
2023-02-26T23:38:06.134Z,102554.53
2023-02-26T23:41:10.971Z,102558.09
2023-02-26T23:44:13.938Z,102553.66
2023-02-26T23:47:16.995Z,102554.53
2023-02-26T23:50:20.145Z,102557.25
2023-02-26T23:53:23.566Z,102548.31
2023-02-26T23:56:28.393Z,102553.66
2023-02-26T23:59:31.528Z,102556.31
